Search for airport 
image banner adimage banner adimage banner ad
image banner ad

CL94 - Plumas District Hospital

Located in Quincy, United States

ICAO - CL94, IATA -

Data provided by Airmate  

General information

Coordinates: N39°56'25" W120°57'43"
Elevation is 3425 feet MSL.
Magnetic variation is 17° East
View others Airports in California

Operational data

Special qualification required
Current time UTC:
Current local time:
Weather at : KSVE - Susanville Muni ( 59 km )
METAR: KSVE 292015Z AUTO 07010KT 10SM FEW060 34/01 A3010 RMK AO2
View NOTAMs / SUP AIP / TFR affecting this airport [VIEW]
Communications frequencies: [VIEW]

Runways:

Airport contact information

Address: Quincy United States

Satellite view of CL94